sensor_id;sensor_type;location;lat;lon;timestamp;P1;durP1;ratioP1;P2;durP2;ratioP2
46755;SDS011;32506;52.826;-1.192;2023-11-18T00:02:22;13.18;;;3.05;;
46755;SDS011;32506;52.826;-1.192;2023-11-18T00:04:49;10.15;;;2.92;;
46755;SDS011;32506;52.826;-1.192;2023-11-18T00:07:15;11.57;;;3.83;;
46755;SDS011;32506;52.826;-1.192;2023-11-18T00:09:40;6.32;;;2.45;;
46755;SDS011;32506;52.826;-1.192;2023-11-18T00:12:08;6.85;;;2.80;;
46755;SDS011;32506;52.826;-1.192;2023-11-18T00:14:33;9.10;;;2.63;;
46755;SDS011;32506;52.826;-1.192;2023-11-18T00:16:58;6.15;;;2.30;;
46755;SDS011;32506;52.826;-1.192;2023-11-18T00:19:24;6.75;;;2.58;;
46755;SDS011;32506;52.826;-1.192;2023-11-18T00:21:49;7.32;;;2.30;;
46755;SDS011;32506;52.826;-1.192;2023-11-18T00:24:15;8.88;;;2.40;;
46755;SDS011;32506;52.826;-1.192;2023-11-18T00:26:40;7.13;;;2.20;;
46755;SDS011;32506;52.826;-1.192;2023-11-18T00:29:06;11.80;;;3.53;;
46755;SDS011;32506;52.826;-1.192;2023-11-18T00:31:31;8.57;;;2.40;;
46755;SDS011;32506;52.826;-1.192;2023-11-18T00:33:57;9.02;;;3.05;;
46755;SDS011;32506;52.826;-1.192;2023-11-18T00:36:22;7.68;;;2.05;;
46755;SDS011;32506;52.826;-1.192;2023-11-18T00:38:47;6.78;;;2.38;;
46755;SDS011;32506;52.826;-1.192;2023-11-18T00:41:14;6.65;;;1.90;;
46755;SDS011;32506;52.826;-1.192;2023-11-18T00:43:39;7.13;;;2.05;;
46755;SDS011;32506;52.826;-1.192;2023-11-18T00:46:05;7.80;;;2.05;;
46755;SDS011;32506;52.826;-1.192;2023-11-18T00:48:30;6.78;;;1.77;;
46755;SDS011;32506;52.826;-1.192;2023-11-18T00:50:56;6.97;;;1.80;;
46755;SDS011;32506;52.826;-1.192;2023-11-18T00:53:21;6.13;;;2.13;;
46755;SDS011;32506;52.826;-1.192;2023-11-18T00:55:47;8.18;;;2.00;;
46755;SDS011;32506;52.826;-1.192;2023-11-18T00:58:13;8.70;;;1.90;;
46755;SDS011;32506;52.826;-1.192;2023-11-18T01:00:39;5.13;;;1.48;;
46755;SDS011;32506;52.826;-1.192;2023-11-18T01:03:04;5.35;;;1.77;;
46755;SDS011;32506;52.826;-1.192;2023-11-18T01:05:30;5.57;;;1.60;;
46755;SDS011;32506;52.826;-1.192;2023-11-18T01:07:56;5.03;;;1.25;;
46755;SDS011;32506;52.826;-1.192;2023-11-18T01:10:22;4.68;;;1.20;;
46755;SDS011;32506;52.826;-1.192;2023-11-18T01:12:48;4.78;;;1.17;;
46755;SDS011;32506;52.826;-1.192;2023-11-18T01:15:13;5.82;;;1.70;;
46755;SDS011;32506;52.826;-1.192;2023-11-18T01:17:39;6.93;;;1.67;;
46755;SDS011;32506;52.826;-1.192;2023-11-18T01:20:06;6.28;;;1.92;;
46755;SDS011;32506;52.826;-1.192;2023-11-18T01:22:39;7.43;;;1.80;;
46755;SDS011;32506;52.826;-1.192;2023-11-18T01:25:06;4.55;;;1.48;;
46755;SDS011;32506;52.826;-1.192;2023-11-18T01:27:33;3.70;;;1.48;;
46755;SDS011;32506;52.826;-1.192;2023-11-18T01:29:59;4.95;;;1.55;;
46755;SDS011;32506;52.826;-1.192;2023-11-18T01:32:25;7.03;;;1.88;;
46755;SDS011;32506;52.826;-1.192;2023-11-18T01:34:50;4.25;;;1.33;;
46755;SDS011;32506;52.826;-1.192;2023-11-18T01:37:16;10.10;;;2.50;;
46755;SDS011;32506;52.826;-1.192;2023-11-18T01:39:42;5.82;;;1.95;;
46755;SDS011;32506;52.826;-1.192;2023-11-18T01:42:08;5.85;;;1.27;;
46755;SDS011;32506;52.826;-1.192;2023-11-18T01:44:33;6.05;;;1.92;;
46755;SDS011;32506;52.826;-1.192;2023-11-18T01:47:01;4.93;;;1.77;;
46755;SDS011;32506;52.826;-1.192;2023-11-18T01:49:31;4.88;;;1.92;;
46755;SDS011;32506;52.826;-1.192;2023-11-18T01:51:57;8.88;;;1.80;;
46755;SDS011;32506;52.826;-1.192;2023-11-18T01:54:26;4.93;;;1.48;;
46755;SDS011;32506;52.826;-1.192;2023-11-18T01:56:52;4.65;;;1.10;;
46755;SDS011;32506;52.826;-1.192;2023-11-18T01:59:18;4.32;;;1.10;;
46755;SDS011;32506;52.826;-1.192;2023-11-18T02:01:47;5.00;;;1.60;;
46755;SDS011;32506;52.826;-1.192;2023-11-18T02:04:18;4.28;;;1.20;;
46755;SDS011;32506;52.826;-1.192;2023-11-18T02:06:45;5.60;;;1.35;;
46755;SDS011;32506;52.826;-1.192;2023-11-18T02:09:13;4.70;;;1.35;;
46755;SDS011;32506;52.826;-1.192;2023-11-18T02:14:29;4.45;;;1.00;;
46755;SDS011;32506;52.826;-1.192;2023-11-18T02:16:59;3.33;;;1.00;;
46755;SDS011;32506;52.826;-1.192;2023-11-18T02:19:27;3.63;;;0.93;;
46755;SDS011;32506;52.826;-1.192;2023-11-18T02:21:55;4.93;;;1.30;;
46755;SDS011;32506;52.826;-1.192;2023-11-18T02:24:28;7.03;;;1.50;;
46755;SDS011;32506;52.826;-1.192;2023-11-18T02:26:58;2.70;;;0.88;;
46755;SDS011;32506;52.826;-1.192;2023-11-18T02:29:25;5.45;;;0.93;;
46755;SDS011;32506;52.826;-1.192;2023-11-18T02:31:55;6.10;;;0.80;;
46755;SDS011;32506;52.826;-1.192;2023-11-18T02:34:40;3.40;;;1.00;;
46755;SDS011;32506;52.826;-1.192;2023-11-18T02:37:13;5.10;;;1.10;;
46755;SDS011;32506;52.826;-1.192;2023-11-18T02:39:39;3.20;;;0.80;;
46755;SDS011;32506;52.826;-1.192;2023-11-18T02:42:08;5.30;;;0.85;;
46755;SDS011;32506;52.826;-1.192;2023-11-18T02:44:38;2.67;;;0.70;;
46755;SDS011;32506;52.826;-1.192;2023-11-18T02:47:04;1.73;;;0.68;;
46755;SDS011;32506;52.826;-1.192;2023-11-18T02:49:30;2.63;;;0.93;;
46755;SDS011;32506;52.826;-1.192;2023-11-18T02:51:56;1.55;;;0.75;;
46755;SDS011;32506;52.826;-1.192;2023-11-18T02:54:21;2.97;;;0.90;;
46755;SDS011;32506;52.826;-1.192;2023-11-18T02:56:47;3.97;;;0.82;;
46755;SDS011;32506;52.826;-1.192;2023-11-18T02:59:13;2.78;;;0.70;;
46755;SDS011;32506;52.826;-1.192;2023-11-18T03:01:38;4.47;;;1.02;;
46755;SDS011;32506;52.826;-1.192;2023-11-18T03:04:06;4.22;;;0.82;;
46755;SDS011;32506;52.826;-1.192;2023-11-18T03:06:33;2.88;;;0.73;;
46755;SDS011;32506;52.826;-1.192;2023-11-18T03:09:00;3.33;;;1.55;;
46755;SDS011;32506;52.826;-1.192;2023-11-18T03:11:26;1.45;;;0.50;;
46755;SDS011;32506;52.826;-1.192;2023-11-18T03:13:55;3.88;;;0.60;;
46755;SDS011;32506;52.826;-1.192;2023-11-18T03:16:22;4.18;;;0.75;;
46755;SDS011;32506;52.826;-1.192;2023-11-18T03:18:49;4.15;;;0.80;;
46755;SDS011;32506;52.826;-1.192;2023-11-18T03:21:15;3.03;;;0.70;;
46755;SDS011;32506;52.826;-1.192;2023-11-18T03:23:41;4.90;;;1.63;;
46755;SDS011;32506;52.826;-1.192;2023-11-18T03:26:10;2.45;;;0.95;;
46755;SDS011;32506;52.826;-1.192;2023-11-18T03:28:36;4.03;;;0.63;;
46755;SDS011;32506;52.826;-1.192;2023-11-18T03:31:02;2.25;;;0.63;;
46755;SDS011;32506;52.826;-1.192;2023-11-18T03:33:30;2.17;;;0.47;;
46755;SDS011;32506;52.826;-1.192;2023-11-18T03:35:56;3.30;;;0.52;;
46755;SDS011;32506;52.826;-1.192;2023-11-18T03:38:22;2.05;;;0.70;;
46755;SDS011;32506;52.826;-1.192;2023-11-18T03:40:48;1.27;;;0.45;;
46755;SDS011;32506;52.826;-1.192;2023-11-18T03:43:14;2.50;;;0.60;;
46755;SDS011;32506;52.826;-1.192;2023-11-18T03:45:40;3.13;;;0.73;;
46755;SDS011;32506;52.826;-1.192;2023-11-18T03:48:06;2.38;;;0.50;;
46755;SDS011;32506;52.826;-1.192;2023-11-18T03:50:32;1.30;;;0.40;;
46755;SDS011;32506;52.826;-1.192;2023-11-18T03:52:58;1.13;;;0.65;;
46755;SDS011;32506;52.826;-1.192;2023-11-18T03:55:24;1.65;;;0.60;;
46755;SDS011;32506;52.826;-1.192;2023-11-18T03:57:50;3.40;;;0.50;;
46755;SDS011;32506;52.826;-1.192;2023-11-18T04:00:17;2.95;;;0.52;;
46755;SDS011;32506;52.826;-1.192;2023-11-18T04:02:42;2.20;;;0.40;;
46755;SDS011;32506;52.826;-1.192;2023-11-18T04:05:09;2.53;;;0.50;;
46755;SDS011;32506;52.826;-1.192;2023-11-18T04:07:35;2.15;;;0.60;;
46755;SDS011;32506;52.826;-1.192;2023-11-18T04:10:00;1.45;;;0.70;;
46755;SDS011;32506;52.826;-1.192;2023-11-18T04:12:25;2.65;;;1.05;;
46755;SDS011;32506;52.826;-1.192;2023-11-18T04:14:52;3.67;;;0.70;;
46755;SDS011;32506;52.826;-1.192;2023-11-18T04:17:18;2.42;;;0.50;;
46755;SDS011;32506;52.826;-1.192;2023-11-18T04:19:43;2.67;;;0.57;;
46755;SDS011;32506;52.826;-1.192;2023-11-18T04:22:09;2.40;;;0.60;;
46755;SDS011;32506;52.826;-1.192;2023-11-18T04:24:34;2.88;;;0.50;;
46755;SDS011;32506;52.826;-1.192;2023-11-18T04:27:00;2.13;;;0.40;;
46755;SDS011;32506;52.826;-1.192;2023-11-18T04:29:27;1.85;;;0.40;;
46755;SDS011;32506;52.826;-1.192;2023-11-18T04:31:52;1.33;;;0.40;;
46755;SDS011;32506;52.826;-1.192;2023-11-18T04:34:18;1.73;;;0.60;;
46755;SDS011;32506;52.826;-1.192;2023-11-18T04:36:44;1.15;;;0.50;;
46755;SDS011;32506;52.826;-1.192;2023-11-18T04:39:09;0.82;;;0.32;;
46755;SDS011;32506;52.826;-1.192;2023-11-18T04:41:40;1.45;;;0.40;;
46755;SDS011;32506;52.826;-1.192;2023-11-18T04:44:06;2.97;;;0.63;;
46755;SDS011;32506;52.826;-1.192;2023-11-18T04:46:31;1.70;;;0.50;;
46755;SDS011;32506;52.826;-1.192;2023-11-18T04:48:57;1.33;;;0.40;;
46755;SDS011;32506;52.826;-1.192;2023-11-18T04:51:22;3.58;;;0.52;;
46755;SDS011;32506;52.826;-1.192;2023-11-18T04:53:48;1.70;;;0.40;;
46755;SDS011;32506;52.826;-1.192;2023-11-18T04:56:13;0.73;;;0.40;;
46755;SDS011;32506;52.826;-1.192;2023-11-18T04:58:41;1.63;;;0.50;;
46755;SDS011;32506;52.826;-1.192;2023-11-18T05:01:08;0.70;;;0.40;;
46755;SDS011;32506;52.826;-1.192;2023-11-18T05:03:34;1.45;;;0.80;;
46755;SDS011;32506;52.826;-1.192;2023-11-18T05:06:00;1.10;;;0.38;;
46755;SDS011;32506;52.826;-1.192;2023-11-18T05:08:25;0.88;;;0.47;;
46755;SDS011;32506;52.826;-1.192;2023-11-18T05:10:51;0.50;;;0.50;;
46755;SDS011;32506;52.826;-1.192;2023-11-18T05:13:17;0.17;;;0.17;;
46755;SDS011;32506;52.826;-1.192;2023-11-18T05:15:43;0.95;;;0.30;;
46755;SDS011;32506;52.826;-1.192;2023-11-18T05:18:12;1.25;;;0.32;;
46755;SDS011;32506;52.826;-1.192;2023-11-18T05:20:41;0.40;;;0.28;;
46755;SDS011;32506;52.826;-1.192;2023-11-18T05:23:07;1.50;;;0.30;;
46755;SDS011;32506;52.826;-1.192;2023-11-18T05:25:41;1.17;;;0.40;;
46755;SDS011;32506;52.826;-1.192;2023-11-18T05:28:11;0.90;;;0.38;;
46755;SDS011;32506;52.826;-1.192;2023-11-18T05:30:37;1.20;;;0.32;;
46755;SDS011;32506;52.826;-1.192;2023-11-18T05:33:03;1.15;;;0.40;;
46755;SDS011;32506;52.826;-1.192;2023-11-18T05:35:30;0.40;;;0.30;;
46755;SDS011;32506;52.826;-1.192;2023-11-18T05:37:56;1.05;;;0.30;;
46755;SDS011;32506;52.826;-1.192;2023-11-18T05:40:22;0.40;;;0.30;;
46755;SDS011;32506;52.826;-1.192;2023-11-18T05:42:48;0.75;;;0.20;;
46755;SDS011;32506;52.826;-1.192;2023-11-18T05:45:17;0.80;;;0.30;;
46755;SDS011;32506;52.826;-1.192;2023-11-18T05:47:53;0.43;;;0.20;;
46755;SDS011;32506;52.826;-1.192;2023-11-18T05:50:22;0.55;;;0.28;;
46755;SDS011;32506;52.826;-1.192;2023-11-18T05:52:50;2.35;;;1.05;;
46755;SDS011;32506;52.826;-1.192;2023-11-18T05:55:16;0.60;;;0.30;;
46755;SDS011;32506;52.826;-1.192;2023-11-18T05:57:41;0.25;;;0.20;;
46755;SDS011;32506;52.826;-1.192;2023-11-18T06:00:14;0.30;;;0.20;;
46755;SDS011;32506;52.826;-1.192;2023-11-18T06:02:43;0.70;;;0.30;;
46755;SDS011;32506;52.826;-1.192;2023-11-18T06:05:09;0.77;;;0.30;;
46755;SDS011;32506;52.826;-1.192;2023-11-18T06:07:37;0.40;;;0.20;;
46755;SDS011;32506;52.826;-1.192;2023-11-18T06:10:05;0.40;;;0.30;;
46755;SDS011;32506;52.826;-1.192;2023-11-18T06:12:32;0.30;;;0.20;;
46755;SDS011;32506;52.826;-1.192;2023-11-18T06:14:58;0.85;;;0.28;;
46755;SDS011;32506;52.826;-1.192;2023-11-18T06:17:24;0.25;;;0.20;;
46755;SDS011;32506;52.826;-1.192;2023-11-18T06:19:50;0.60;;;0.30;;
46755;SDS011;32506;52.826;-1.192;2023-11-18T06:22:15;0.88;;;0.30;;
46755;SDS011;32506;52.826;-1.192;2023-11-18T06:24:41;0.55;;;0.10;;
46755;SDS011;32506;52.826;-1.192;2023-11-18T06:27:06;0.10;;;0.10;;
46755;SDS011;32506;52.826;-1.192;2023-11-18T06:29:33;0.95;;;0.30;;
46755;SDS011;32506;52.826;-1.192;2023-11-18T06:31:59;1.65;;;0.30;;
46755;SDS011;32506;52.826;-1.192;2023-11-18T06:34:25;0.60;;;0.20;;
46755;SDS011;32506;52.826;-1.192;2023-11-18T06:36:52;0.55;;;0.10;;
46755;SDS011;32506;52.826;-1.192;2023-11-18T06:39:18;0.82;;;0.20;;
46755;SDS011;32506;52.826;-1.192;2023-11-18T06:41:44;0.63;;;0.20;;
46755;SDS011;32506;52.826;-1.192;2023-11-18T06:44:15;0.35;;;0.20;;
46755;SDS011;32506;52.826;-1.192;2023-11-18T06:46:43;0.10;;;0.10;;
46755;SDS011;32506;52.826;-1.192;2023-11-18T06:49:09;0.30;;;0.20;;
46755;SDS011;32506;52.826;-1.192;2023-11-18T06:51:40;3.50;;;0.25;;
46755;SDS011;32506;52.826;-1.192;2023-11-18T06:54:06;0.10;;;0.10;;
46755;SDS011;32506;52.826;-1.192;2023-11-18T06:56:39;0.20;;;0.20;;
46755;SDS011;32506;52.826;-1.192;2023-11-18T06:59:09;0.40;;;0.30;;
46755;SDS011;32506;52.826;-1.192;2023-11-18T07:01:37;1.23;;;0.13;;
46755;SDS011;32506;52.826;-1.192;2023-11-18T07:04:06;0.28;;;0.20;;
46755;SDS011;32506;52.826;-1.192;2023-11-18T07:06:33;0.65;;;0.20;;
46755;SDS011;32506;52.826;-1.192;2023-11-18T07:09:03;0.70;;;0.20;;
46755;SDS011;32506;52.826;-1.192;2023-11-18T07:11:39;0.20;;;0.20;;
46755;SDS011;32506;52.826;-1.192;2023-11-18T07:14:06;0.43;;;0.22;;
46755;SDS011;32506;52.826;-1.192;2023-11-18T07:16:34;0.45;;;0.10;;
46755;SDS011;32506;52.826;-1.192;2023-11-18T07:18:59;0.38;;;0.30;;
46755;SDS011;32506;52.826;-1.192;2023-11-18T07:21:24;0.77;;;0.20;;
46755;SDS011;32506;52.826;-1.192;2023-11-18T07:23:50;0.47;;;0.30;;
46755;SDS011;32506;52.826;-1.192;2023-11-18T07:26:16;0.50;;;0.30;;
46755;SDS011;32506;52.826;-1.192;2023-11-18T07:28:41;0.40;;;0.20;;
46755;SDS011;32506;52.826;-1.192;2023-11-18T07:31:08;1.00;;;0.80;;
46755;SDS011;32506;52.826;-1.192;2023-11-18T07:33:34;0.17;;;0.17;;
46755;SDS011;32506;52.826;-1.192;2023-11-18T07:35:59;0.40;;;0.30;;
46755;SDS011;32506;52.826;-1.192;2023-11-18T07:38:27;0.30;;;0.30;;
46755;SDS011;32506;52.826;-1.192;2023-11-18T07:40:52;0.28;;;0.20;;
46755;SDS011;32506;52.826;-1.192;2023-11-18T07:43:21;0.38;;;0.30;;
46755;SDS011;32506;52.826;-1.192;2023-11-18T07:45:47;0.10;;;0.10;;
46755;SDS011;32506;52.826;-1.192;2023-11-18T07:48:18;0.25;;;0.20;;
46755;SDS011;32506;52.826;-1.192;2023-11-18T07:50:45;0.38;;;0.17;;
46755;SDS011;32506;52.826;-1.192;2023-11-18T07:53:14;0.20;;;0.20;;
46755;SDS011;32506;52.826;-1.192;2023-11-18T07:55:41;0.10;;;0.10;;
46755;SDS011;32506;52.826;-1.192;2023-11-18T07:58:07;0.17;;;0.10;;
46755;SDS011;32506;52.826;-1.192;2023-11-18T08:00:42;0.43;;;0.10;;
46755;SDS011;32506;52.826;-1.192;2023-11-18T08:03:10;0.73;;;0.20;;
46755;SDS011;32506;52.826;-1.192;2023-11-18T08:05:42;0.20;;;0.20;;
46755;SDS011;32506;52.826;-1.192;2023-11-18T08:08:12;0.68;;;0.30;;
46755;SDS011;32506;52.826;-1.192;2023-11-18T08:10:39;0.50;;;0.30;;
46755;SDS011;32506;52.826;-1.192;2023-11-18T08:13:06;0.28;;;0.10;;
46755;SDS011;32506;52.826;-1.192;2023-11-18T08:15:42;0.85;;;0.20;;
46755;SDS011;32506;52.826;-1.192;2023-11-18T08:18:12;0.22;;;0.10;;
46755;SDS011;32506;52.826;-1.192;2023-11-18T08:20:37;0.45;;;0.35;;
46755;SDS011;32506;52.826;-1.192;2023-11-18T08:23:04;0.30;;;0.10;;
46755;SDS011;32506;52.826;-1.192;2023-11-18T08:25:32;1.75;;;0.20;;
46755;SDS011;32506;52.826;-1.192;2023-11-18T08:28:01;0.32;;;0.22;;
46755;SDS011;32506;52.826;-1.192;2023-11-18T08:30:32;0.20;;;0.20;;
46755;SDS011;32506;52.826;-1.192;2023-11-18T08:33:06;0.28;;;0.17;;
46755;SDS011;32506;52.826;-1.192;2023-11-18T08:35:34;0.30;;;0.10;;
46755;SDS011;32506;52.826;-1.192;2023-11-18T08:38:01;0.20;;;0.10;;
46755;SDS011;32506;52.826;-1.192;2023-11-18T08:40:26;0.10;;;0.10;;
46755;SDS011;32506;52.826;-1.192;2023-11-18T08:42:52;1.35;;;0.13;;
46755;SDS011;32506;52.826;-1.192;2023-11-18T08:45:24;0.25;;;0.10;;
46755;SDS011;32506;52.826;-1.192;2023-11-18T08:47:57;0.35;;;0.20;;
46755;SDS011;32506;52.826;-1.192;2023-11-18T08:50:25;1.23;;;0.10;;
46755;SDS011;32506;52.826;-1.192;2023-11-18T08:52:51;1.25;;;0.13;;
46755;SDS011;32506;52.826;-1.192;2023-11-18T08:55:22;0.57;;;0.10;;
46755;SDS011;32506;52.826;-1.192;2023-11-18T08:58:03;0.13;;;0.10;;
46755;SDS011;32506;52.826;-1.192;2023-11-18T09:00:40;0.57;;;0.30;;
46755;SDS011;32506;52.826;-1.192;2023-11-18T09:03:09;0.57;;;0.20;;
46755;SDS011;32506;52.826;-1.192;2023-11-18T09:05:54;0.60;;;0.25;;
46755;SDS011;32506;52.826;-1.192;2023-11-18T09:10:54;0.43;;;0.10;;
46755;SDS011;32506;52.826;-1.192;2023-11-18T09:13:21;0.57;;;0.20;;
46755;SDS011;32506;52.826;-1.192;2023-11-18T09:15:48;0.68;;;0.17;;
46755;SDS011;32506;52.826;-1.192;2023-11-18T09:18:14;0.45;;;0.20;;
46755;SDS011;32506;52.826;-1.192;2023-11-18T09:20:43;1.17;;;0.15;;
46755;SDS011;32506;52.826;-1.192;2023-11-18T09:23:08;1.15;;;0.30;;
46755;SDS011;32506;52.826;-1.192;2023-11-18T09:25:34;1.67;;;0.20;;
46755;SDS011;32506;52.826;-1.192;2023-11-18T09:28:01;0.40;;;0.20;;
46755;SDS011;32506;52.826;-1.192;2023-11-18T09:30:28;0.40;;;0.22;;
46755;SDS011;32506;52.826;-1.192;2023-11-18T09:32:54;0.70;;;0.20;;
46755;SDS011;32506;52.826;-1.192;2023-11-18T09:35:20;2.22;;;0.25;;
46755;SDS011;32506;52.826;-1.192;2023-11-18T09:37:46;0.90;;;0.20;;
46755;SDS011;32506;52.826;-1.192;2023-11-18T09:40:15;3.50;;;0.30;;
46755;SDS011;32506;52.826;-1.192;2023-11-18T09:42:43;0.60;;;0.20;;
46755;SDS011;32506;52.826;-1.192;2023-11-18T09:45:09;1.10;;;0.40;;
46755;SDS011;32506;52.826;-1.192;2023-11-18T09:47:45;1.35;;;0.22;;
46755;SDS011;32506;52.826;-1.192;2023-11-18T09:50:16;1.27;;;0.28;;
46755;SDS011;32506;52.826;-1.192;2023-11-18T09:52:47;0.70;;;0.30;;
46755;SDS011;32506;52.826;-1.192;2023-11-18T09:55:26;0.50;;;0.20;;
46755;SDS011;32506;52.826;-1.192;2023-11-18T09:58:04;0.40;;;0.25;;
46755;SDS011;32506;52.826;-1.192;2023-11-18T10:00:38;1.10;;;0.30;;
46755;SDS011;32506;52.826;-1.192;2023-11-18T10:03:07;0.45;;;0.30;;
46755;SDS011;32506;52.826;-1.192;2023-11-18T10:05:35;0.60;;;0.30;;
46755;SDS011;32506;52.826;-1.192;2023-11-18T10:08:02;0.40;;;0.22;;
46755;SDS011;32506;52.826;-1.192;2023-11-18T10:10:30;0.43;;;0.32;;
46755;SDS011;32506;52.826;-1.192;2023-11-18T10:15:52;1.02;;;0.40;;
46755;SDS011;32506;52.826;-1.192;2023-11-18T10:18:17;2.55;;;0.50;;
46755;SDS011;32506;52.826;-1.192;2023-11-18T10:20:49;0.82;;;0.38;;
46755;SDS011;32506;52.826;-1.192;2023-11-18T10:23:24;0.68;;;0.38;;
46755;SDS011;32506;52.826;-1.192;2023-11-18T10:25:51;0.50;;;0.30;;
46755;SDS011;32506;52.826;-1.192;2023-11-18T10:28:25;0.60;;;0.20;;
46755;SDS011;32506;52.826;-1.192;2023-11-18T10:30:57;1.60;;;0.45;;
46755;SDS011;32506;52.826;-1.192;2023-11-18T10:33:32;3.38;;;0.30;;
46755;SDS011;32506;52.826;-1.192;2023-11-18T10:36:02;1.05;;;0.28;;
46755;SDS011;32506;52.826;-1.192;2023-11-18T10:38:33;0.55;;;0.25;;
46755;SDS011;32506;52.826;-1.192;2023-11-18T10:41:08;0.50;;;0.30;;
46755;SDS011;32506;52.826;-1.192;2023-11-18T10:43:34;0.82;;;0.20;;
46755;SDS011;32506;52.826;-1.192;2023-11-18T10:46:13;1.00;;;0.40;;
46755;SDS011;32506;52.826;-1.192;2023-11-18T10:48:40;3.03;;;0.57;;
46755;SDS011;32506;52.826;-1.192;2023-11-18T10:51:12;0.63;;;0.30;;
46755;SDS011;32506;52.826;-1.192;2023-11-18T10:53:41;1.00;;;0.45;;
46755;SDS011;32506;52.826;-1.192;2023-11-18T10:56:18;0.80;;;0.50;;
46755;SDS011;32506;52.826;-1.192;2023-11-18T10:58:49;1.67;;;0.30;;
46755;SDS011;32506;52.826;-1.192;2023-11-18T11:01:15;0.75;;;0.40;;
46755;SDS011;32506;52.826;-1.192;2023-11-18T11:03:55;1.08;;;0.50;;
46755;SDS011;32506;52.826;-1.192;2023-11-18T11:06:21;0.70;;;0.40;;
46755;SDS011;32506;52.826;-1.192;2023-11-18T11:08:49;0.47;;;0.40;;
46755;SDS011;32506;52.826;-1.192;2023-11-18T11:11:21;1.10;;;0.40;;
46755;SDS011;32506;52.826;-1.192;2023-11-18T11:13:49;1.15;;;0.30;;
46755;SDS011;32506;52.826;-1.192;2023-11-18T11:16:17;0.82;;;0.50;;
46755;SDS011;32506;52.826;-1.192;2023-11-18T11:18:47;1.73;;;0.40;;
46755;SDS011;32506;52.826;-1.192;2023-11-18T11:21:19;0.52;;;0.20;;
46755;SDS011;32506;52.826;-1.192;2023-11-18T11:26:49;0.93;;;0.20;;
46755;SDS011;32506;52.826;-1.192;2023-11-18T11:29:25;0.90;;;0.30;;
46755;SDS011;32506;52.826;-1.192;2023-11-18T11:34:53;0.57;;;0.30;;
46755;SDS011;32506;52.826;-1.192;2023-11-18T11:37:25;2.15;;;0.30;;
46755;SDS011;32506;52.826;-1.192;2023-11-18T11:39:55;0.50;;;0.20;;
46755;SDS011;32506;52.826;-1.192;2023-11-18T11:42:23;1.67;;;0.60;;
46755;SDS011;32506;52.826;-1.192;2023-11-18T11:44:49;0.75;;;0.22;;
46755;SDS011;32506;52.826;-1.192;2023-11-18T11:47:18;0.90;;;0.30;;
46755;SDS011;32506;52.826;-1.192;2023-11-18T11:49:50;1.52;;;0.45;;
46755;SDS011;32506;52.826;-1.192;2023-11-18T11:52:35;0.45;;;0.30;;
46755;SDS011;32506;52.826;-1.192;2023-11-18T11:57:55;0.77;;;0.30;;
46755;SDS011;32506;52.826;-1.192;2023-11-18T12:00:23;0.30;;;0.28;;
46755;SDS011;32506;52.826;-1.192;2023-11-18T12:02:51;0.32;;;0.20;;
46755;SDS011;32506;52.826;-1.192;2023-11-18T12:05:24;0.52;;;0.30;;
46755;SDS011;32506;52.826;-1.192;2023-11-18T12:07:54;1.50;;;0.32;;
46755;SDS011;32506;52.826;-1.192;2023-11-18T12:10:21;1.38;;;0.20;;
46755;SDS011;32506;52.826;-1.192;2023-11-18T12:12:51;2.13;;;0.27;;
46755;SDS011;32506;52.826;-1.192;2023-11-18T12:18:19;0.93;;;0.45;;
46755;SDS011;32506;52.826;-1.192;2023-11-18T12:20:46;2.17;;;0.40;;
46755;SDS011;32506;52.826;-1.192;2023-11-18T12:23:13;1.63;;;0.30;;
46755;SDS011;32506;52.826;-1.192;2023-11-18T12:25:42;1.95;;;0.50;;
46755;SDS011;32506;52.826;-1.192;2023-11-18T12:28:16;1.25;;;0.32;;
46755;SDS011;32506;52.826;-1.192;2023-11-18T12:30:46;3.40;;;0.30;;
46755;SDS011;32506;52.826;-1.192;2023-11-18T12:33:21;0.20;;;0.20;;
46755;SDS011;32506;52.826;-1.192;2023-11-18T12:41:37;0.75;;;0.20;;
46755;SDS011;32506;52.826;-1.192;2023-11-18T12:44:15;0.80;;;0.30;;
46755;SDS011;32506;52.826;-1.192;2023-11-18T12:47:02;3.85;;;0.30;;
46755;SDS011;32506;52.826;-1.192;2023-11-18T12:49:46;1.85;;;0.50;;
46755;SDS011;32506;52.826;-1.192;2023-11-18T12:52:19;1.00;;;0.40;;
46755;SDS011;32506;52.826;-1.192;2023-11-18T12:54:46;0.98;;;0.32;;
46755;SDS011;32506;52.826;-1.192;2023-11-18T12:57:16;2.67;;;0.38;;
46755;SDS011;32506;52.826;-1.192;2023-11-18T12:59:42;1.85;;;0.45;;
46755;SDS011;32506;52.826;-1.192;2023-11-18T13:02:09;2.15;;;0.30;;
46755;SDS011;32506;52.826;-1.192;2023-11-18T13:04:41;3.15;;;0.60;;
46755;SDS011;32506;52.826;-1.192;2023-11-18T13:07:06;2.20;;;0.40;;
46755;SDS011;32506;52.826;-1.192;2023-11-18T13:09:36;2.95;;;0.50;;
46755;SDS011;32506;52.826;-1.192;2023-11-18T13:12:03;3.50;;;0.80;;
46755;SDS011;32506;52.826;-1.192;2023-11-18T13:14:31;1.30;;;0.50;;
46755;SDS011;32506;52.826;-1.192;2023-11-18T13:17:14;3.05;;;1.00;;
46755;SDS011;32506;52.826;-1.192;2023-11-18T13:19:43;4.78;;;1.58;;
46755;SDS011;32506;52.826;-1.192;2023-11-18T13:22:13;4.22;;;0.50;;
46755;SDS011;32506;52.826;-1.192;2023-11-18T13:24:39;3.33;;;0.70;;
46755;SDS011;32506;52.826;-1.192;2023-11-18T13:27:09;2.53;;;0.65;;
46755;SDS011;32506;52.826;-1.192;2023-11-18T13:29:36;5.30;;;0.98;;
46755;SDS011;32506;52.826;-1.192;2023-11-18T13:32:04;3.50;;;0.68;;
46755;SDS011;32506;52.826;-1.192;2023-11-18T13:34:32;3.63;;;0.80;;
46755;SDS011;32506;52.826;-1.192;2023-11-18T13:37:02;4.07;;;0.68;;
46755;SDS011;32506;52.826;-1.192;2023-11-18T13:39:32;5.40;;;1.02;;
46755;SDS011;32506;52.826;-1.192;2023-11-18T13:41:58;5.63;;;0.70;;
46755;SDS011;32506;52.826;-1.192;2023-11-18T13:44:42;5.75;;;1.45;;
46755;SDS011;32506;52.826;-1.192;2023-11-18T13:47:09;5.22;;;0.80;;
46755;SDS011;32506;52.826;-1.192;2023-11-18T13:49:37;3.10;;;0.60;;
46755;SDS011;32506;52.826;-1.192;2023-11-18T13:52:06;3.38;;;0.70;;
46755;SDS011;32506;52.826;-1.192;2023-11-18T13:54:37;2.50;;;0.63;;
46755;SDS011;32506;52.826;-1.192;2023-11-18T13:57:04;4.85;;;0.95;;
46755;SDS011;32506;52.826;-1.192;2023-11-18T13:59:31;2.25;;;0.90;;
46755;SDS011;32506;52.826;-1.192;2023-11-18T14:01:57;6.57;;;1.42;;
46755;SDS011;32506;52.826;-1.192;2023-11-18T14:04:24;3.65;;;0.77;;
46755;SDS011;32506;52.826;-1.192;2023-11-18T14:06:52;3.30;;;1.25;;
46755;SDS011;32506;52.826;-1.192;2023-11-18T14:09:31;5.95;;;0.98;;
46755;SDS011;32506;52.826;-1.192;2023-11-18T14:12:01;2.80;;;0.80;;
46755;SDS011;32506;52.826;-1.192;2023-11-18T14:14:29;4.68;;;1.00;;
46755;SDS011;32506;52.826;-1.192;2023-11-18T14:16:55;4.18;;;1.25;;
46755;SDS011;32506;52.826;-1.192;2023-11-18T14:19:23;6.78;;;1.00;;
46755;SDS011;32506;52.826;-1.192;2023-11-18T14:21:50;4.00;;;1.33;;
46755;SDS011;32506;52.826;-1.192;2023-11-18T14:24:18;7.32;;;1.05;;
46755;SDS011;32506;52.826;-1.192;2023-11-18T14:26:44;5.05;;;1.00;;
46755;SDS011;32506;52.826;-1.192;2023-11-18T14:29:10;6.40;;;1.20;;
46755;SDS011;32506;52.826;-1.192;2023-11-18T14:31:38;5.93;;;1.10;;
46755;SDS011;32506;52.826;-1.192;2023-11-18T14:34:04;4.63;;;1.20;;
46755;SDS011;32506;52.826;-1.192;2023-11-18T14:36:30;6.10;;;1.08;;
46755;SDS011;32506;52.826;-1.192;2023-11-18T14:38:56;7.28;;;1.27;;
46755;SDS011;32506;52.826;-1.192;2023-11-18T14:41:23;5.03;;;1.10;;
46755;SDS011;32506;52.826;-1.192;2023-11-18T14:43:51;6.60;;;1.38;;
46755;SDS011;32506;52.826;-1.192;2023-11-18T14:46:16;3.55;;;0.95;;
46755;SDS011;32506;52.826;-1.192;2023-11-18T14:48:43;3.55;;;0.82;;
46755;SDS011;32506;52.826;-1.192;2023-11-18T14:51:09;7.22;;;1.50;;
46755;SDS011;32506;52.826;-1.192;2023-11-18T14:53:35;4.47;;;1.77;;
46755;SDS011;32506;52.826;-1.192;2023-11-18T14:56:01;4.80;;;0.98;;
46755;SDS011;32506;52.826;-1.192;2023-11-18T14:58:29;4.50;;;1.08;;
46755;SDS011;32506;52.826;-1.192;2023-11-18T15:00:55;5.05;;;1.02;;
46755;SDS011;32506;52.826;-1.192;2023-11-18T15:03:22;4.70;;;1.40;;
46755;SDS011;32506;52.826;-1.192;2023-11-18T15:05:47;8.38;;;1.50;;